메인 페이지
METAR-TAF:

METAR-TAF

공항 :

Lawson Army Airfield

콜럼버스, 조지아, 미국

위도: 32-20N, 경도: 084-50W, 고도: 71m

현재 날씨관측

예보는 15분 전, 19:42시(UTC)에 발표되었습니다.
남서7kt
온도 30°C
습도 70%
기압 1015 hPa
시정: 16.1km
고도 3900ft 상공 구름 보통
고도 8500ft 상공 구름 많음

METAR: KLSF 171942Z AUTO 22007KT 10SM SCT039 BKN085 30/24 A2998 RMK AO2 DZB02E17DZB19E23RAB23E41DZB41E42 SLP155

시각: 15:57 (19:57 UTC)

예보

예보는 2 시간 57분 전, 17:00시(UTC)에 발표되었습니다.
예보 대상 시간: 17일 17시부터 18일 23시까지 (UTC)
6kt
시정 10km 이상
고도 3000ft 상공 구름 조금
시계 내 소나기
일시적
17일 23시부터 18일 04시까지 (UTC)
12kt, 순간 최대 풍속 20kt
시정: 4800m
고도 4000ft 상공 구름 많음, 적란운.
뇌우, 약한비
전환 중
18일 03시부터 18일 04시까지 (UTC)
3kt
시정 10km 이상
고도 5000ft 상공 구름 보통
전환 중
18일 08시부터 18일 09시까지 (UTC)
남남서3kt
시정: 6000m
고도 1500ft 상공 구름 많음
박무
전환 중
18일 12시부터 18일 13시까지 (UTC)
남서3kt
시정 10km 이상
고도 5000ft 상공 구름 조금
전환 중
18일 16시부터 18일 17시까지 (UTC)
남서12kt
시정: 8000m
고도 5000ft 상공 구름 보통, 적란운.
약한소나기, 시계 내 뇌우

TAF: KLSF 171700Z 1717/1823 17006KT 9999 VCSH FEW030 QNH2994INS TEMPO 1723/1804 18012G20KT 4800 -TSRA BKN040CB BECMG 1803/1804 19003KT 9999 NSW SCT050 QNH2997INS BECMG 1808/1809 20003KT 6000 BR BKN015 QNH2999INS BECMG 1812/1813 22003KT 9999 NSW FEW050 QNH3000INS BECMG 1816/1817 23012KT 8000 -SHRA VCTS SCT050CB QNH3000INS TX34/1720Z TN20/1811Z

4,000개 이상의 공항 관측 자료 및 예보 (METAR 및 TAF 보고).

지도상에서 검색 가능한 기상관측소가 노란 점과 빨간 점으로 표시되어 있습니다.

기상관측소 명을 보려면 표시 위로 마우스를 이동하세요.

날씨 관측과 예보를 보려면 클릭하세요.

지도 변경 : 확대하려면 엑스 표시가 있는 녹색 버튼, 축소하려면 빼기 표시가 있는 녹색 버튼, 다음 페이지의 지도를 보려면 녹색 화살표를 클릭하세요.


METAR-TAF: